sensor_id;sensor_type;location;lat;lon;timestamp;P1;durP1;ratioP1;P2;durP2;ratioP2
21458;SDS011;10891;49.350;19.386;2023-08-21T00:01:40;21.15;;;16.23;;
21458;SDS011;10891;49.350;19.386;2023-08-21T00:04:07;23.00;;;17.00;;
21458;SDS011;10891;49.350;19.386;2023-08-21T00:06:35;25.30;;;17.98;;
21458;SDS011;10891;49.350;19.386;2023-08-21T00:09:02;26.42;;;17.23;;
21458;SDS011;10891;49.350;19.386;2023-08-21T00:11:29;24.38;;;16.60;;
21458;SDS011;10891;49.350;19.386;2023-08-21T00:13:57;20.85;;;15.35;;
21458;SDS011;10891;49.350;19.386;2023-08-21T00:16:25;23.08;;;17.33;;
21458;SDS011;10891;49.350;19.386;2023-08-21T00:18:53;21.33;;;16.10;;
21458;SDS011;10891;49.350;19.386;2023-08-21T00:21:20;20.50;;;15.43;;
21458;SDS011;10891;49.350;19.386;2023-08-21T00:23:47;21.15;;;14.98;;
21458;SDS011;10891;49.350;19.386;2023-08-21T00:26:15;23.30;;;14.48;;
21458;SDS011;10891;49.350;19.386;2023-08-21T00:28:42;25.88;;;15.13;;
21458;SDS011;10891;49.350;19.386;2023-08-21T00:31:10;19.63;;;14.60;;
21458;SDS011;10891;49.350;19.386;2023-08-21T00:33:37;24.13;;;14.95;;
21458;SDS011;10891;49.350;19.386;2023-08-21T00:36:05;19.95;;;14.65;;
21458;SDS011;10891;49.350;19.386;2023-08-21T00:38:32;21.45;;;14.68;;
21458;SDS011;10891;49.350;19.386;2023-08-21T00:40:59;18.33;;;15.30;;
21458;SDS011;10891;49.350;19.386;2023-08-21T00:43:26;19.60;;;13.98;;
21458;SDS011;10891;49.350;19.386;2023-08-21T00:45:52;20.08;;;14.90;;
21458;SDS011;10891;49.350;19.386;2023-08-21T00:48:21;20.00;;;14.63;;
21458;SDS011;10891;49.350;19.386;2023-08-21T00:50:48;18.52;;;14.60;;
21458;SDS011;10891;49.350;19.386;2023-08-21T00:53:15;18.17;;;14.50;;
21458;SDS011;10891;49.350;19.386;2023-08-21T00:55:43;20.10;;;15.63;;
21458;SDS011;10891;49.350;19.386;2023-08-21T00:58:10;21.50;;;15.05;;
21458;SDS011;10891;49.350;19.386;2023-08-21T01:00:38;21.40;;;15.38;;
21458;SDS011;10891;49.350;19.386;2023-08-21T01:03:05;21.92;;;16.83;;
21458;SDS011;10891;49.350;19.386;2023-08-21T01:05:35;21.00;;;16.60;;
21458;SDS011;10891;49.350;19.386;2023-08-21T01:08:03;19.25;;;16.25;;
21458;SDS011;10891;49.350;19.386;2023-08-21T01:10:39;20.08;;;15.80;;
21458;SDS011;10891;49.350;19.386;2023-08-21T01:13:09;27.83;;;16.92;;
21458;SDS011;10891;49.350;19.386;2023-08-21T01:15:38;21.02;;;16.25;;
21458;SDS011;10891;49.350;19.386;2023-08-21T01:18:06;21.52;;;16.63;;
21458;SDS011;10891;49.350;19.386;2023-08-21T01:20:36;19.80;;;15.27;;
21458;SDS011;10891;49.350;19.386;2023-08-21T01:23:03;22.33;;;15.43;;
21458;SDS011;10891;49.350;19.386;2023-08-21T01:25:33;19.33;;;14.55;;
21458;SDS011;10891;49.350;19.386;2023-08-21T01:28:00;20.10;;;15.80;;
21458;SDS011;10891;49.350;19.386;2023-08-21T01:30:28;21.13;;;15.65;;
21458;SDS011;10891;49.350;19.386;2023-08-21T01:32:58;20.85;;;16.30;;
21458;SDS011;10891;49.350;19.386;2023-08-21T01:35:26;19.80;;;15.50;;
21458;SDS011;10891;49.350;19.386;2023-08-21T01:37:54;20.77;;;15.98;;
21458;SDS011;10891;49.350;19.386;2023-08-21T01:40:21;22.65;;;15.35;;
21458;SDS011;10891;49.350;19.386;2023-08-21T01:42:50;20.02;;;15.40;;
21458;SDS011;10891;49.350;19.386;2023-08-21T01:45:19;20.83;;;16.25;;
21458;SDS011;10891;49.350;19.386;2023-08-21T01:47:46;20.98;;;14.82;;
21458;SDS011;10891;49.350;19.386;2023-08-21T01:50:13;19.88;;;15.45;;
21458;SDS011;10891;49.350;19.386;2023-08-21T01:52:40;19.33;;;15.90;;
21458;SDS011;10891;49.350;19.386;2023-08-21T01:55:08;21.42;;;15.35;;
21458;SDS011;10891;49.350;19.386;2023-08-21T01:57:35;25.02;;;16.25;;
21458;SDS011;10891;49.350;19.386;2023-08-21T02:00:04;20.40;;;15.30;;
21458;SDS011;10891;49.350;19.386;2023-08-21T02:02:32;20.75;;;15.02;;
21458;SDS011;10891;49.350;19.386;2023-08-21T02:04:59;21.33;;;16.70;;
21458;SDS011;10891;49.350;19.386;2023-08-21T02:07:26;17.75;;;15.00;;
21458;SDS011;10891;49.350;19.386;2023-08-21T02:09:53;28.65;;;15.90;;
21458;SDS011;10891;49.350;19.386;2023-08-21T02:12:20;21.73;;;16.70;;
21458;SDS011;10891;49.350;19.386;2023-08-21T02:14:47;23.00;;;16.20;;
21458;SDS011;10891;49.350;19.386;2023-08-21T02:17:16;26.83;;;17.15;;
21458;SDS011;10891;49.350;19.386;2023-08-21T02:19:43;23.98;;;16.88;;
21458;SDS011;10891;49.350;19.386;2023-08-21T02:22:10;25.08;;;17.73;;
21458;SDS011;10891;49.350;19.386;2023-08-21T02:24:37;27.10;;;18.00;;
21458;SDS011;10891;49.350;19.386;2023-08-21T02:27:04;24.02;;;17.30;;
21458;SDS011;10891;49.350;19.386;2023-08-21T02:29:32;25.98;;;17.08;;
21458;SDS011;10891;49.350;19.386;2023-08-21T02:31:59;23.13;;;17.33;;
21458;SDS011;10891;49.350;19.386;2023-08-21T02:34:27;21.65;;;16.08;;
21458;SDS011;10891;49.350;19.386;2023-08-21T02:36:54;19.33;;;14.68;;
21458;SDS011;10891;49.350;19.386;2023-08-21T02:39:22;20.95;;;14.40;;
21458;SDS011;10891;49.350;19.386;2023-08-21T02:41:49;18.67;;;15.18;;
21458;SDS011;10891;49.350;19.386;2023-08-21T02:44:16;23.92;;;14.45;;
21458;SDS011;10891;49.350;19.386;2023-08-21T02:46:43;24.83;;;14.38;;
21458;SDS011;10891;49.350;19.386;2023-08-21T02:49:10;24.08;;;14.55;;
21458;SDS011;10891;49.350;19.386;2023-08-21T02:51:39;20.33;;;14.85;;
21458;SDS011;10891;49.350;19.386;2023-08-21T02:54:06;22.75;;;15.88;;
21458;SDS011;10891;49.350;19.386;2023-08-21T02:56:33;18.80;;;14.95;;
21458;SDS011;10891;49.350;19.386;2023-08-21T02:59:00;22.15;;;16.77;;
21458;SDS011;10891;49.350;19.386;2023-08-21T03:01:27;21.80;;;17.35;;
21458;SDS011;10891;49.350;19.386;2023-08-21T03:03:54;28.15;;;18.02;;
21458;SDS011;10891;49.350;19.386;2023-08-21T03:06:22;21.85;;;17.42;;
21458;SDS011;10891;49.350;19.386;2023-08-21T03:08:50;25.50;;;16.98;;
21458;SDS011;10891;49.350;19.386;2023-08-21T03:11:17;23.83;;;18.15;;
21458;SDS011;10891;49.350;19.386;2023-08-21T03:13:44;24.45;;;18.08;;
21458;SDS011;10891;49.350;19.386;2023-08-21T03:16:12;24.70;;;18.17;;
21458;SDS011;10891;49.350;19.386;2023-08-21T03:18:53;23.38;;;17.88;;
21458;SDS011;10891;49.350;19.386;2023-08-21T03:21:20;22.50;;;18.15;;
21458;SDS011;10891;49.350;19.386;2023-08-21T03:23:50;25.25;;;17.88;;
21458;SDS011;10891;49.350;19.386;2023-08-21T03:26:18;25.10;;;18.55;;
21458;SDS011;10891;49.350;19.386;2023-08-21T03:28:45;34.17;;;19.48;;
21458;SDS011;10891;49.350;19.386;2023-08-21T03:31:12;24.75;;;19.85;;
21458;SDS011;10891;49.350;19.386;2023-08-21T03:33:39;26.02;;;19.77;;
21458;SDS011;10891;49.350;19.386;2023-08-21T03:36:07;24.10;;;18.38;;
21458;SDS011;10891;49.350;19.386;2023-08-21T03:38:34;27.45;;;18.98;;
21458;SDS011;10891;49.350;19.386;2023-08-21T03:41:02;25.25;;;19.05;;
21458;SDS011;10891;49.350;19.386;2023-08-21T03:43:30;25.38;;;18.67;;
21458;SDS011;10891;49.350;19.386;2023-08-21T03:45:58;29.83;;;19.10;;
21458;SDS011;10891;49.350;19.386;2023-08-21T03:48:25;25.80;;;18.52;;
21458;SDS011;10891;49.350;19.386;2023-08-21T03:50:52;23.05;;;17.90;;
21458;SDS011;10891;49.350;19.386;2023-08-21T03:53:19;23.75;;;18.63;;
21458;SDS011;10891;49.350;19.386;2023-08-21T03:55:46;24.25;;;18.80;;
21458;SDS011;10891;49.350;19.386;2023-08-21T03:58:15;23.75;;;17.77;;
21458;SDS011;10891;49.350;19.386;2023-08-21T04:00:42;24.08;;;17.45;;
21458;SDS011;10891;49.350;19.386;2023-08-21T04:03:09;21.73;;;17.45;;
21458;SDS011;10891;49.350;19.386;2023-08-21T04:05:37;23.67;;;17.70;;
21458;SDS011;10891;49.350;19.386;2023-08-21T04:08:04;24.80;;;18.13;;
21458;SDS011;10891;49.350;19.386;2023-08-21T04:10:31;24.38;;;17.25;;
21458;SDS011;10891;49.350;19.386;2023-08-21T04:12:58;18.98;;;15.93;;
21458;SDS011;10891;49.350;19.386;2023-08-21T04:15:27;21.98;;;15.77;;
21458;SDS011;10891;49.350;19.386;2023-08-21T04:17:54;26.65;;;14.88;;
21458;SDS011;10891;49.350;19.386;2023-08-21T04:20:21;19.70;;;14.98;;
21458;SDS011;10891;49.350;19.386;2023-08-21T04:22:48;20.50;;;14.25;;
21458;SDS011;10891;49.350;19.386;2023-08-21T04:25:16;20.77;;;14.18;;
21458;SDS011;10891;49.350;19.386;2023-08-21T04:27:43;17.83;;;13.30;;
21458;SDS011;10891;49.350;19.386;2023-08-21T04:30:11;19.55;;;13.45;;
21458;SDS011;10891;49.350;19.386;2023-08-21T04:32:40;20.15;;;13.65;;
21458;SDS011;10891;49.350;19.386;2023-08-21T04:35:07;15.90;;;12.55;;
21458;SDS011;10891;49.350;19.386;2023-08-21T04:37:37;23.00;;;12.65;;
21458;SDS011;10891;49.350;19.386;2023-08-21T04:40:05;16.45;;;12.68;;
21458;SDS011;10891;49.350;19.386;2023-08-21T04:42:33;14.88;;;12.13;;
21458;SDS011;10891;49.350;19.386;2023-08-21T04:45:00;15.25;;;12.35;;
21458;SDS011;10891;49.350;19.386;2023-08-21T04:47:28;17.88;;;11.57;;
21458;SDS011;10891;49.350;19.386;2023-08-21T04:49:57;14.27;;;11.27;;
21458;SDS011;10891;49.350;19.386;2023-08-21T04:52:24;15.02;;;11.80;;
21458;SDS011;10891;49.350;19.386;2023-08-21T04:54:51;19.50;;;11.35;;
21458;SDS011;10891;49.350;19.386;2023-08-21T04:57:19;15.40;;;10.50;;
21458;SDS011;10891;49.350;19.386;2023-08-21T04:59:47;12.88;;;11.07;;
21458;SDS011;10891;49.350;19.386;2023-08-21T05:02:14;13.35;;;10.57;;
21458;SDS011;10891;49.350;19.386;2023-08-21T05:04:42;17.73;;;11.80;;
21458;SDS011;10891;49.350;19.386;2023-08-21T05:07:10;23.25;;;11.23;;
21458;SDS011;10891;49.350;19.386;2023-08-21T05:09:37;18.95;;;10.93;;
21458;SDS011;10891;49.350;19.386;2023-08-21T05:12:05;16.70;;;10.73;;
21458;SDS011;10891;49.350;19.386;2023-08-21T05:14:32;30.35;;;12.02;;
21458;SDS011;10891;49.350;19.386;2023-08-21T05:16:59;19.60;;;12.68;;
21458;SDS011;10891;49.350;19.386;2023-08-21T05:19:27;17.80;;;11.57;;
21458;SDS011;10891;49.350;19.386;2023-08-21T05:21:54;15.90;;;11.25;;
21458;SDS011;10891;49.350;19.386;2023-08-21T05:24:22;15.70;;;10.65;;
21458;SDS011;10891;49.350;19.386;2023-08-21T05:26:49;11.60;;;10.40;;
21458;SDS011;10891;49.350;19.386;2023-08-21T05:29:17;13.38;;;10.85;;
21458;SDS011;10891;49.350;19.386;2023-08-21T05:31:44;15.88;;;11.65;;
21458;SDS011;10891;49.350;19.386;2023-08-21T05:34:11;15.82;;;12.30;;
21458;SDS011;10891;49.350;19.386;2023-08-21T05:36:38;19.92;;;12.00;;
21458;SDS011;10891;49.350;19.386;2023-08-21T05:39:07;13.30;;;11.30;;
21458;SDS011;10891;49.350;19.386;2023-08-21T05:41:36;18.13;;;11.95;;
21458;SDS011;10891;49.350;19.386;2023-08-21T05:44:04;15.38;;;12.27;;
21458;SDS011;10891;49.350;19.386;2023-08-21T05:46:31;15.63;;;11.05;;
21458;SDS011;10891;49.350;19.386;2023-08-21T05:48:58;16.13;;;11.57;;
21458;SDS011;10891;49.350;19.386;2023-08-21T05:51:25;12.35;;;10.52;;
21458;SDS011;10891;49.350;19.386;2023-08-21T05:53:53;13.60;;;10.90;;
21458;SDS011;10891;49.350;19.386;2023-08-21T05:56:20;28.30;;;11.32;;
21458;SDS011;10891;49.350;19.386;2023-08-21T05:58:49;14.30;;;10.90;;
21458;SDS011;10891;49.350;19.386;2023-08-21T06:01:16;16.73;;;11.45;;
21458;SDS011;10891;49.350;19.386;2023-08-21T06:03:43;13.18;;;11.38;;
21458;SDS011;10891;49.350;19.386;2023-08-21T06:06:10;18.60;;;12.65;;
21458;SDS011;10891;49.350;19.386;2023-08-21T06:08:38;23.33;;;13.45;;
21458;SDS011;10891;49.350;19.386;2023-08-21T06:11:05;16.67;;;12.18;;
21458;SDS011;10891;49.350;19.386;2023-08-21T06:13:32;18.95;;;11.68;;
21458;SDS011;10891;49.350;19.386;2023-08-21T06:16:00;16.00;;;11.70;;
21458;SDS011;10891;49.350;19.386;2023-08-21T06:18:28;17.42;;;13.18;;
21458;SDS011;10891;49.350;19.386;2023-08-21T06:20:55;17.35;;;14.13;;
21458;SDS011;10891;49.350;19.386;2023-08-21T06:23:22;17.25;;;12.95;;
21458;SDS011;10891;49.350;19.386;2023-08-21T06:25:49;23.77;;;12.48;;
21458;SDS011;10891;49.350;19.386;2023-08-21T06:28:17;18.80;;;12.85;;
21458;SDS011;10891;49.350;19.386;2023-08-21T06:30:44;18.00;;;11.95;;
21458;SDS011;10891;49.350;19.386;2023-08-21T06:33:13;20.45;;;13.15;;
21458;SDS011;10891;49.350;19.386;2023-08-21T06:35:40;21.55;;;13.88;;
21458;SDS011;10891;49.350;19.386;2023-08-21T06:38:07;16.02;;;13.10;;
21458;SDS011;10891;49.350;19.386;2023-08-21T06:40:35;15.35;;;12.23;;
21458;SDS011;10891;49.350;19.386;2023-08-21T06:43:02;17.25;;;12.07;;
21458;SDS011;10891;49.350;19.386;2023-08-21T06:45:31;15.48;;;12.18;;
21458;SDS011;10891;49.350;19.386;2023-08-21T06:47:58;15.07;;;13.05;;
21458;SDS011;10891;49.350;19.386;2023-08-21T06:50:26;13.38;;;11.40;;
21458;SDS011;10891;49.350;19.386;2023-08-21T06:52:57;11.70;;;10.60;;
21458;SDS011;10891;49.350;19.386;2023-08-21T06:55:24;11.98;;;10.73;;
21458;SDS011;10891;49.350;19.386;2023-08-21T06:57:51;24.50;;;12.55;;
21458;SDS011;10891;49.350;19.386;2023-08-21T07:00:18;12.65;;;11.07;;
21458;SDS011;10891;49.350;19.386;2023-08-21T07:02:46;16.52;;;12.57;;
21458;SDS011;10891;49.350;19.386;2023-08-21T07:05:13;14.52;;;12.85;;
21458;SDS011;10891;49.350;19.386;2023-08-21T07:07:42;15.13;;;12.80;;
21458;SDS011;10891;49.350;19.386;2023-08-21T07:10:09;15.48;;;12.85;;
21458;SDS011;10891;49.350;19.386;2023-08-21T07:12:37;15.55;;;12.35;;
21458;SDS011;10891;49.350;19.386;2023-08-21T07:15:05;15.90;;;13.18;;
21458;SDS011;10891;49.350;19.386;2023-08-21T07:17:32;16.10;;;13.48;;
21458;SDS011;10891;49.350;19.386;2023-08-21T07:20:00;14.95;;;13.35;;
21458;SDS011;10891;49.350;19.386;2023-08-21T07:22:28;17.05;;;12.70;;
21458;SDS011;10891;49.350;19.386;2023-08-21T07:24:57;16.85;;;11.98;;
21458;SDS011;10891;49.350;19.386;2023-08-21T07:27:25;20.40;;;13.38;;
21458;SDS011;10891;49.350;19.386;2023-08-21T07:29:52;16.63;;;12.48;;
21458;SDS011;10891;49.350;19.386;2023-08-21T07:32:20;15.98;;;12.50;;
21458;SDS011;10891;49.350;19.386;2023-08-21T07:34:48;16.50;;;13.18;;
21458;SDS011;10891;49.350;19.386;2023-08-21T07:37:18;15.52;;;13.77;;
21458;SDS011;10891;49.350;19.386;2023-08-21T07:39:45;19.73;;;14.48;;
21458;SDS011;10891;49.350;19.386;2023-08-21T07:42:14;18.00;;;14.10;;
21458;SDS011;10891;49.350;19.386;2023-08-21T07:44:41;19.17;;;13.50;;
21458;SDS011;10891;49.350;19.386;2023-08-21T07:47:08;18.33;;;14.75;;
21458;SDS011;10891;49.350;19.386;2023-08-21T07:49:36;19.45;;;15.70;;
21458;SDS011;10891;49.350;19.386;2023-08-21T07:52:03;18.63;;;14.88;;
21458;SDS011;10891;49.350;19.386;2023-08-21T07:54:30;17.67;;;14.23;;
21458;SDS011;10891;49.350;19.386;2023-08-21T07:56:57;18.25;;;11.10;;
21458;SDS011;10891;49.350;19.386;2023-08-21T07:59:26;12.10;;;10.32;;
21458;SDS011;10891;49.350;19.386;2023-08-21T08:01:54;29.75;;;12.02;;
21458;SDS011;10891;49.350;19.386;2023-08-21T08:04:21;14.10;;;11.02;;
21458;SDS011;10891;49.350;19.386;2023-08-21T08:06:49;13.75;;;10.32;;
21458;SDS011;10891;49.350;19.386;2023-08-21T08:09:16;13.05;;;10.38;;
21458;SDS011;10891;49.350;19.386;2023-08-21T08:11:44;12.95;;;9.77;;
21458;SDS011;10891;49.350;19.386;2023-08-21T08:14:11;12.88;;;10.00;;
21458;SDS011;10891;49.350;19.386;2023-08-21T08:16:40;15.40;;;9.38;;
21458;SDS011;10891;49.350;19.386;2023-08-21T08:19:07;11.05;;;8.48;;
21458;SDS011;10891;49.350;19.386;2023-08-21T08:21:34;9.13;;;8.10;;
21458;SDS011;10891;49.350;19.386;2023-08-21T08:24:02;15.95;;;8.45;;
21458;SDS011;10891;49.350;19.386;2023-08-21T08:26:29;11.52;;;7.57;;
21458;SDS011;10891;49.350;19.386;2023-08-21T08:28:57;9.50;;;8.10;;
21458;SDS011;10891;49.350;19.386;2023-08-21T08:31:24;10.48;;;7.63;;
21458;SDS011;10891;49.350;19.386;2023-08-21T08:33:54;9.82;;;7.20;;
21458;SDS011;10891;49.350;19.386;2023-08-21T08:36:21;12.45;;;7.90;;
21458;SDS011;10891;49.350;19.386;2023-08-21T08:38:48;17.73;;;7.40;;
21458;SDS011;10891;49.350;19.386;2023-08-21T08:41:18;12.55;;;7.55;;
21458;SDS011;10891;49.350;19.386;2023-08-21T08:43:50;8.02;;;5.93;;
21458;SDS011;10891;49.350;19.386;2023-08-21T08:46:17;6.93;;;6.13;;
21458;SDS011;10891;49.350;19.386;2023-08-21T08:48:45;9.73;;;7.45;;
21458;SDS011;10891;49.350;19.386;2023-08-21T08:51:13;7.97;;;6.22;;
21458;SDS011;10891;49.350;19.386;2023-08-21T08:53:41;9.35;;;6.65;;
21458;SDS011;10891;49.350;19.386;2023-08-21T08:56:09;9.98;;;6.20;;
21458;SDS011;10891;49.350;19.386;2023-08-21T08:58:37;7.03;;;6.32;;
21458;SDS011;10891;49.350;19.386;2023-08-21T09:01:05;8.80;;;5.85;;
21458;SDS011;10891;49.350;19.386;2023-08-21T09:03:32;7.43;;;5.93;;
21458;SDS011;10891;49.350;19.386;2023-08-21T09:06:00;9.82;;;6.45;;
21458;SDS011;10891;49.350;19.386;2023-08-21T09:08:29;8.15;;;6.85;;
21458;SDS011;10891;49.350;19.386;2023-08-21T09:10:56;6.78;;;6.13;;
21458;SDS011;10891;49.350;19.386;2023-08-21T09:13:28;7.63;;;6.10;;
21458;SDS011;10891;49.350;19.386;2023-08-21T09:15:55;11.35;;;7.35;;
21458;SDS011;10891;49.350;19.386;2023-08-21T09:18:22;10.90;;;6.38;;
21458;SDS011;10891;49.350;19.386;2023-08-21T09:20:50;6.85;;;6.10;;
21458;SDS011;10891;49.350;19.386;2023-08-21T09:23:18;19.23;;;6.18;;
21458;SDS011;10891;49.350;19.386;2023-08-21T09:25:47;8.18;;;5.70;;
21458;SDS011;10891;49.350;19.386;2023-08-21T09:28:17;7.22;;;6.00;;
21458;SDS011;10891;49.350;19.386;2023-08-21T09:30:47;11.80;;;5.90;;
21458;SDS011;10891;49.350;19.386;2023-08-21T09:33:16;7.95;;;6.15;;
21458;SDS011;10891;49.350;19.386;2023-08-21T09:35:44;15.25;;;6.47;;
21458;SDS011;10891;49.350;19.386;2023-08-21T09:38:11;17.75;;;13.30;;
21458;SDS011;10891;49.350;19.386;2023-08-21T09:40:39;9.48;;;6.00;;
21458;SDS011;10891;49.350;19.386;2023-08-21T09:43:09;9.15;;;6.38;;
21458;SDS011;10891;49.350;19.386;2023-08-21T09:45:37;7.15;;;5.72;;
21458;SDS011;10891;49.350;19.386;2023-08-21T09:48:05;9.25;;;6.15;;
21458;SDS011;10891;49.350;19.386;2023-08-21T09:50:32;6.43;;;5.82;;
21458;SDS011;10891;49.350;19.386;2023-08-21T09:53:01;7.15;;;5.85;;
21458;SDS011;10891;49.350;19.386;2023-08-21T09:55:29;10.13;;;5.95;;
21458;SDS011;10891;49.350;19.386;2023-08-21T09:57:59;8.45;;;6.63;;
21458;SDS011;10891;49.350;19.386;2023-08-21T10:00:30;10.10;;;6.25;;
21458;SDS011;10891;49.350;19.386;2023-08-21T10:03:00;7.43;;;6.05;;
21458;SDS011;10891;49.350;19.386;2023-08-21T10:05:28;9.88;;;6.53;;
21458;SDS011;10891;49.350;19.386;2023-08-21T10:07:57;8.73;;;6.15;;
21458;SDS011;10891;49.350;19.386;2023-08-21T10:10:26;9.38;;;5.53;;
21458;SDS011;10891;49.350;19.386;2023-08-21T10:12:53;3.85;;;2.92;;
21458;SDS011;10891;49.350;19.386;2023-08-21T10:15:21;8.55;;;3.33;;
21458;SDS011;10891;49.350;19.386;2023-08-21T10:17:50;8.77;;;4.28;;
21458;SDS011;10891;49.350;19.386;2023-08-21T10:20:20;5.38;;;3.90;;
21458;SDS011;10891;49.350;19.386;2023-08-21T10:22:48;9.35;;;4.22;;
21458;SDS011;10891;49.350;19.386;2023-08-21T10:25:17;6.90;;;4.38;;
21458;SDS011;10891;49.350;19.386;2023-08-21T10:27:49;5.57;;;4.18;;
21458;SDS011;10891;49.350;19.386;2023-08-21T10:30:19;4.68;;;3.75;;
21458;SDS011;10891;49.350;19.386;2023-08-21T10:32:47;6.97;;;4.13;;
21458;SDS011;10891;49.350;19.386;2023-08-21T10:35:17;4.10;;;3.67;;
21458;SDS011;10891;49.350;19.386;2023-08-21T10:40:41;3.72;;;3.38;;
21458;SDS011;10891;49.350;19.386;2023-08-21T10:43:38;5.60;;;2.75;;
21458;SDS011;10891;49.350;19.386;2023-08-21T10:46:06;6.35;;;2.92;;
21458;SDS011;10891;49.350;19.386;2023-08-21T10:48:34;3.55;;;3.03;;
21458;SDS011;10891;49.350;19.386;2023-08-21T10:51:01;9.88;;;3.42;;
21458;SDS011;10891;49.350;19.386;2023-08-21T10:53:30;4.50;;;3.25;;
21458;SDS011;10891;49.350;19.386;2023-08-21T10:56:00;3.78;;;3.05;;
21458;SDS011;10891;49.350;19.386;2023-08-21T10:58:28;5.65;;;3.42;;
21458;SDS011;10891;49.350;19.386;2023-08-21T11:00:57;7.00;;;3.15;;
21458;SDS011;10891;49.350;19.386;2023-08-21T11:03:25;4.82;;;3.30;;
21458;SDS011;10891;49.350;19.386;2023-08-21T11:06:01;5.30;;;3.75;;
21458;SDS011;10891;49.350;19.386;2023-08-21T11:08:29;5.65;;;4.40;;
21458;SDS011;10891;49.350;19.386;2023-08-21T11:10:56;9.82;;;3.88;;
21458;SDS011;10891;49.350;19.386;2023-08-21T11:13:24;4.57;;;3.28;;
21458;SDS011;10891;49.350;19.386;2023-08-21T11:15:58;6.80;;;3.78;;
21458;SDS011;10891;49.350;19.386;2023-08-21T11:18:29;6.50;;;4.00;;
21458;SDS011;10891;49.350;19.386;2023-08-21T11:21:02;6.95;;;4.28;;
21458;SDS011;10891;49.350;19.386;2023-08-21T11:23:32;4.72;;;3.55;;
21458;SDS011;10891;49.350;19.386;2023-08-21T11:25:59;6.53;;;3.45;;
21458;SDS011;10891;49.350;19.386;2023-08-21T11:28:28;5.38;;;3.80;;
21458;SDS011;10891;49.350;19.386;2023-08-21T11:30:55;7.65;;;3.53;;
21458;SDS011;10891;49.350;19.386;2023-08-21T11:33:24;5.28;;;3.90;;
21458;SDS011;10891;49.350;19.386;2023-08-21T11:35:52;7.30;;;4.22;;
21458;SDS011;10891;49.350;19.386;2023-08-21T11:38:20;8.57;;;4.80;;
21458;SDS011;10891;49.350;19.386;2023-08-21T11:40:56;5.93;;;4.32;;
21458;SDS011;10891;49.350;19.386;2023-08-21T11:43:33;6.32;;;4.30;;
21458;SDS011;10891;49.350;19.386;2023-08-21T11:46:01;8.18;;;3.80;;
21458;SDS011;10891;49.350;19.386;2023-08-21T11:48:29;8.13;;;3.97;;
21458;SDS011;10891;49.350;19.386;2023-08-21T11:50:57;8.40;;;4.05;;
21458;SDS011;10891;49.350;19.386;2023-08-21T11:53:34;7.90;;;3.55;;
21458;SDS011;10891;49.350;19.386;2023-08-21T11:56:02;6.18;;;4.28;;
21458;SDS011;10891;49.350;19.386;2023-08-21T11:58:29;6.72;;;4.10;;
21458;SDS011;10891;49.350;19.386;2023-08-21T12:01:01;8.43;;;4.07;;
21458;SDS011;10891;49.350;19.386;2023-08-21T12:03:30;6.20;;;4.07;;
21458;SDS011;10891;49.350;19.386;2023-08-21T12:05:59;6.70;;;3.75;;
21458;SDS011;10891;49.350;19.386;2023-08-21T12:08:26;7.22;;;3.80;;
21458;SDS011;10891;49.350;19.386;2023-08-21T12:10:53;8.32;;;3.95;;
21458;SDS011;10891;49.350;19.386;2023-08-21T12:13:20;5.10;;;3.97;;
21458;SDS011;10891;49.350;19.386;2023-08-21T12:15:47;5.82;;;4.45;;
21458;SDS011;10891;49.350;19.386;2023-08-21T12:18:14;9.82;;;4.60;;
21458;SDS011;10891;49.350;19.386;2023-08-21T12:20:43;6.78;;;5.07;;
21458;SDS011;10891;49.350;19.386;2023-08-21T12:23:10;8.73;;;4.85;;
21458;SDS011;10891;49.350;19.386;2023-08-21T12:25:38;6.15;;;4.45;;
21458;SDS011;10891;49.350;19.386;2023-08-21T12:28:05;6.70;;;4.63;;
21458;SDS011;10891;49.350;19.386;2023-08-21T12:30:33;7.13;;;4.28;;
21458;SDS011;10891;49.350;19.386;2023-08-21T12:33:00;7.85;;;4.65;;
21458;SDS011;10891;49.350;19.386;2023-08-21T12:35:27;10.02;;;4.82;;
21458;SDS011;10891;49.350;19.386;2023-08-21T12:37:57;10.82;;;5.80;;
21458;SDS011;10891;49.350;19.386;2023-08-21T12:40:30;10.45;;;4.80;;
21458;SDS011;10891;49.350;19.386;2023-08-21T12:42:57;10.00;;;5.60;;
21458;SDS011;10891;49.350;19.386;2023-08-21T12:45:24;7.68;;;5.60;;
21458;SDS011;10891;49.350;19.386;2023-08-21T12:47:52;7.63;;;6.10;;
21458;SDS011;10891;49.350;19.386;2023-08-21T12:50:19;11.07;;;6.50;;
21458;SDS011;10891;49.350;19.386;2023-08-21T12:52:46;9.13;;;5.85;;
21458;SDS011;10891;49.350;19.386;2023-08-21T12:55:15;11.82;;;5.75;;
21458;SDS011;10891;49.350;19.386;2023-08-21T12:57:42;8.38;;;5.60;;
21458;SDS011;10891;49.350;19.386;2023-08-21T13:00:10;10.57;;;5.80;;
21458;SDS011;10891;49.350;19.386;2023-08-21T13:02:37;13.98;;;5.70;;
21458;SDS011;10891;49.350;19.386;2023-08-21T13:05:05;14.90;;;6.00;;
21458;SDS011;10891;49.350;19.386;2023-08-21T13:07:32;8.52;;;5.40;;
21458;SDS011;10891;49.350;19.386;2023-08-21T13:09:59;11.35;;;5.82;;
21458;SDS011;10891;49.350;19.386;2023-08-21T13:12:28;22.52;;;7.55;;
21458;SDS011;10891;49.350;19.386;2023-08-21T13:14:55;19.27;;;6.80;;
21458;SDS011;10891;49.350;19.386;2023-08-21T13:17:23;9.30;;;6.30;;
21458;SDS011;10891;49.350;19.386;2023-08-21T13:19:51;10.98;;;7.22;;
21458;SDS011;10891;49.350;19.386;2023-08-21T13:22:18;16.65;;;6.60;;
21458;SDS011;10891;49.350;19.386;2023-08-21T13:24:45;8.18;;;7.03;;
21458;SDS011;10891;49.350;19.386;2023-08-21T13:27:12;8.73;;;6.07;;
21458;SDS011;10891;49.350;19.386;2023-08-21T13:29:41;9.18;;;7.30;;
21458;SDS011;10891;49.350;19.386;2023-08-21T13:32:09;10.35;;;7.25;;
21458;SDS011;10891;49.350;19.386;2023-08-21T13:34:36;13.90;;;6.65;;
21458;SDS011;10891;49.350;19.386;2023-08-21T13:37:04;10.77;;;5.88;;
21458;SDS011;10891;49.350;19.386;2023-08-21T13:39:31;9.65;;;6.57;;
21458;SDS011;10891;49.350;19.386;2023-08-21T13:41:58;12.57;;;6.65;;
21458;SDS011;10891;49.350;19.386;2023-08-21T13:44:25;8.35;;;6.30;;
21458;SDS011;10891;49.350;19.386;2023-08-21T13:46:54;7.95;;;6.50;;
21458;SDS011;10891;49.350;19.386;2023-08-21T13:49:21;8.57;;;6.40;;
21458;SDS011;10891;49.350;19.386;2023-08-21T13:51:48;7.90;;;6.22;;
21458;SDS011;10891;49.350;19.386;2023-08-21T13:54:16;9.23;;;6.38;;
21458;SDS011;10891;49.350;19.386;2023-08-21T13:56:43;8.10;;;6.40;;
21458;SDS011;10891;49.350;19.386;2023-08-21T13:59:11;8.60;;;6.63;;
21458;SDS011;10891;49.350;19.386;2023-08-21T14:01:41;11.93;;;6.57;;
21458;SDS011;10891;49.350;19.386;2023-08-21T14:04:10;8.63;;;6.60;;
21458;SDS011;10891;49.350;19.386;2023-08-21T14:06:38;10.68;;;8.15;;
21458;SDS011;10891;49.350;19.386;2023-08-21T14:09:06;119.68;;;61.03;;
21458;SDS011;10891;49.350;19.386;2023-08-21T14:11:33;165.35;;;91.93;;
21458;SDS011;10891;49.350;19.386;2023-08-21T14:14:00;123.00;;;73.05;;
21458;SDS011;10891;49.350;19.386;2023-08-21T14:16:28;32.92;;;26.63;;
21458;SDS011;10891;49.350;19.386;2023-08-21T14:18:55;27.95;;;24.67;;
21458;SDS011;10891;49.350;19.386;2023-08-21T14:21:23;50.58;;;39.15;;
21458;SDS011;10891;49.350;19.386;2023-08-21T14:23:51;14.35;;;9.52;;
21458;SDS011;10891;49.350;19.386;2023-08-21T14:26:19;15.23;;;8.23;;